Terminal Aerodrome Forecast
Issued by NWS Detroit/Pontiac, MI

Home | Current Version | Previous Version | Text Only | Print | Product List | Glossary On
Versions: 1 2 3 4 5 6 7 8 9 10 11 12 13 14 15 16 17 18 19 20 21 22 23 24 25 26 27 28 29 30 31 32
000
FTUS43 KDTX 240528
TAFDTW
TAF
KDTW 240528Z 2406/2512 16008KT P6SM -RA OVC035 WS020/22040KT
     FM240900 20010KT P6SM SCT035 BKN060 WS020/23045KT
     FM241400 22014G25KT P6SM BKN035
     FM250000 23010KT P6SM OVC020
     FM250600 20006KT 4SM -RA BR OVC012=

USA.gov is the U.S. government's official web portal to all federal, state and local government web resources and services.